createdAt,value
2019-01-29T00:00:58.650Z,4.40
2019-01-29T00:03:25.969Z,3.90
2019-01-29T00:05:53.372Z,3.50
2019-01-29T00:08:20.732Z,3.60
2019-01-29T00:10:48.029Z,3.70
2019-01-29T00:13:15.971Z,3.90
2019-01-29T00:15:43.294Z,3.90
2019-01-29T00:18:10.613Z,4.20
2019-01-29T00:20:38.370Z,4.00
2019-01-29T00:23:05.695Z,3.90
2019-01-29T00:25:33.154Z,4.00
2019-01-29T00:28:00.508Z,4.00
2019-01-29T00:30:27.912Z,4.40
2019-01-29T00:32:55.230Z,4.70
2019-01-29T00:35:22.528Z,4.90
2019-01-29T00:37:49.927Z,4.80
2019-01-29T00:40:17.238Z,4.80
2019-01-29T00:42:44.470Z,5.00
2019-01-29T00:45:12.038Z,4.90
2019-01-29T00:47:39.312Z,4.70
2019-01-29T00:50:07.156Z,4.70
2019-01-29T00:52:41.873Z,4.70
2019-01-29T00:55:05.208Z,4.80
2019-01-29T00:57:32.512Z,4.80
2019-01-29T00:59:59.818Z,4.60
2019-01-29T01:02:27.152Z,4.80
2019-01-29T01:04:54.457Z,4.80
2019-01-29T01:07:22.190Z,4.90
2019-01-29T01:09:56.982Z,4.80
2019-01-29T01:12:18.696Z,4.70
2019-01-29T01:14:45.976Z,4.80
2019-01-29T01:17:13.397Z,4.80
2019-01-29T01:19:40.688Z,4.80
2019-01-29T01:22:08.113Z,4.80
2019-01-29T01:24:35.526Z,4.70
2019-01-29T01:27:03.288Z,4.60
2019-01-29T01:29:30.604Z,4.40
2019-01-29T01:31:57.958Z,4.40
2019-01-29T01:34:25.397Z,4.10
2019-01-29T01:36:52.822Z,4.10
2019-01-29T01:39:20.198Z,4.10
2019-01-29T01:41:47.909Z,4.20
2019-01-29T01:44:15.249Z,4.00
2019-01-29T01:46:42.642Z,4.10
2019-01-29T01:49:09.924Z,4.10
2019-01-29T01:51:37.256Z,4.00
2019-01-29T01:54:04.763Z,4.20
2019-01-29T01:56:32.088Z,4.20
2019-01-29T01:58:59.366Z,4.30
2019-01-29T02:01:26.761Z,4.20
2019-01-29T02:03:54.209Z,4.20
2019-01-29T02:06:21.636Z,4.00
2019-01-29T02:08:49.037Z,4.10
2019-01-29T02:11:16.344Z,4.30
2019-01-29T02:13:44.025Z,4.30
2019-01-29T02:16:11.331Z,4.40
2019-01-29T02:18:38.648Z,4.40
2019-01-29T02:21:06.068Z,4.10
2019-01-29T02:23:33.452Z,4.00
2019-01-29T02:26:00.744Z,4.10
2019-01-29T02:28:28.054Z,4.30
2019-01-29T02:30:55.384Z,4.00
2019-01-29T02:33:25.080Z,4.30
2019-01-29T02:35:51.900Z,4.40
2019-01-29T02:38:19.221Z,4.50
2019-01-29T02:40:46.613Z,4.50
2019-01-29T02:43:13.962Z,4.40
2019-01-29T02:45:41.355Z,4.50
2019-01-29T02:48:08.569Z,4.30
2019-01-29T02:50:35.862Z,4.40
2019-01-29T02:53:03.377Z,4.40
2019-01-29T02:55:30.664Z,4.20
2019-01-29T02:57:57.944Z,4.20
2019-01-29T03:00:26.117Z,4.40
2019-01-29T03:02:53.682Z,4.50
2019-01-29T03:05:21.028Z,4.40
2019-01-29T03:07:48.736Z,4.50
2019-01-29T03:10:18.478Z,4.40
2019-01-29T03:12:45.804Z,4.50
2019-01-29T03:15:15.925Z,4.50
2019-01-29T03:17:43.409Z,4.50
2019-01-29T03:20:11.197Z,4.40
2019-01-29T03:22:38.759Z,4.60
2019-01-29T03:25:07.639Z,4.70
2019-01-29T03:27:35.045Z,4.70
2019-01-29T03:30:02.569Z,4.60
2019-01-29T03:32:29.900Z,4.50
2019-01-29T03:34:57.344Z,4.60
2019-01-29T03:37:24.765Z,4.70
2019-01-29T03:39:52.064Z,4.80
2019-01-29T03:42:19.263Z,4.80
2019-01-29T03:44:46.724Z,4.80
2019-01-29T03:47:14.108Z,4.90
2019-01-29T03:49:41.410Z,4.70
2019-01-29T03:52:08.789Z,4.80
2019-01-29T03:54:36.084Z,4.80
2019-01-29T03:57:03.392Z,4.80
2019-01-29T03:59:30.706Z,4.80
2019-01-29T04:01:57.904Z,4.80
2019-01-29T04:04:25.225Z,4.80
2019-01-29T04:06:52.577Z,5.00
2019-01-29T04:09:19.888Z,5.00
2019-01-29T04:11:47.511Z,5.00
2019-01-29T04:14:14.937Z,5.00
2019-01-29T04:16:42.326Z,5.10
2019-01-29T04:19:09.674Z,5.10
2019-01-29T04:21:37.074Z,5.10
2019-01-29T04:24:04.459Z,5.20
2019-01-29T04:26:32.201Z,5.20
2019-01-29T04:28:59.515Z,5.20
2019-01-29T04:31:26.811Z,5.10
2019-01-29T04:33:54.114Z,5.10
2019-01-29T04:36:21.420Z,5.10
2019-01-29T04:38:48.753Z,5.20
2019-01-29T04:41:16.157Z,5.10
2019-01-29T04:43:43.463Z,5.10
2019-01-29T04:46:10.763Z,5.00
2019-01-29T04:48:38.067Z,4.90
2019-01-29T04:51:05.428Z,5.00
2019-01-29T04:53:33.040Z,4.90
2019-01-29T04:56:00.363Z,5.10
2019-01-29T04:58:28.255Z,5.10
2019-01-29T05:00:55.647Z,5.10
2019-01-29T05:03:23.226Z,5.10
2019-01-29T05:05:50.643Z,5.10
2019-01-29T05:08:18.308Z,5.10
2019-01-29T05:10:45.642Z,5.10
2019-01-29T05:13:13.311Z,4.80
2019-01-29T05:15:40.718Z,4.70
2019-01-29T05:18:08.026Z,4.30
2019-01-29T05:20:35.333Z,4.50
2019-01-29T05:23:02.808Z,4.50
2019-01-29T05:25:30.192Z,4.40
2019-01-29T05:27:57.459Z,4.20
2019-01-29T05:30:25.101Z,4.20
2019-01-29T05:32:52.396Z,4.20
2019-01-29T05:35:20.239Z,4.00
2019-01-29T05:37:47.637Z,4.00
2019-01-29T05:40:16.166Z,4.00
2019-01-29T05:42:43.503Z,4.30
2019-01-29T05:45:12.695Z,4.50
2019-01-29T05:47:40.654Z,4.00
2019-01-29T05:50:09.341Z,3.90
2019-01-29T05:52:36.706Z,3.90
2019-01-29T05:55:04.636Z,3.90
2019-01-29T05:57:32.025Z,4.00
2019-01-29T05:59:59.318Z,4.10
2019-01-29T06:02:26.731Z,4.20
2019-01-29T06:04:54.055Z,3.90
2019-01-29T06:07:21.420Z,3.70
2019-01-29T06:09:48.825Z,3.80
2019-01-29T06:12:17.072Z,3.90
2019-01-29T06:14:44.371Z,3.90
2019-01-29T06:17:11.689Z,3.50
2019-01-29T06:19:39.032Z,3.70
2019-01-29T06:22:06.419Z,3.60
2019-01-29T06:24:33.843Z,4.10
2019-01-29T06:27:01.159Z,4.20
2019-01-29T06:29:28.558Z,4.20
2019-01-29T06:31:55.956Z,4.10
2019-01-29T06:34:23.257Z,4.00
2019-01-29T06:36:50.959Z,4.30
2019-01-29T06:39:18.547Z,4.30
2019-01-29T06:41:45.901Z,4.50
2019-01-29T06:44:13.285Z,4.60
2019-01-29T06:46:40.637Z,4.60
2019-01-29T06:49:08.136Z,4.60
2019-01-29T06:51:35.452Z,4.60
2019-01-29T06:54:02.885Z,4.40
2019-01-29T06:56:30.257Z,4.40
2019-01-29T06:58:57.821Z,4.40
2019-01-29T07:01:25.304Z,4.50
2019-01-29T07:03:52.665Z,4.50
2019-01-29T07:06:20.108Z,4.60
2019-01-29T07:08:47.577Z,4.60
2019-01-29T07:11:15.121Z,4.70
2019-01-29T07:13:42.607Z,4.50
2019-01-29T07:16:32.348Z,4.40
2019-01-29T07:19:03.808Z,4.20
2019-01-29T07:21:31.235Z,4.50
2019-01-29T07:23:58.578Z,4.50
2019-01-29T07:26:26.007Z,4.50
2019-01-29T07:28:53.536Z,4.50
2019-01-29T07:31:21.020Z,4.60
2019-01-29T07:33:48.452Z,4.40
2019-01-29T07:36:15.930Z,4.70
2019-01-29T07:38:43.361Z,5.00
2019-01-29T07:41:10.693Z,5.10
2019-01-29T07:43:38.059Z,5.20
2019-01-29T07:46:05.360Z,5.20
2019-01-29T07:48:32.778Z,5.40
2019-01-29T07:51:00.178Z,5.40
2019-01-29T07:53:27.584Z,5.40
2019-01-29T07:55:55.418Z,5.50
2019-01-29T07:58:22.786Z,5.50
2019-01-29T08:00:50.079Z,5.50
2019-01-29T08:03:17.509Z,5.20
2019-01-29T08:05:45.479Z,5.20
2019-01-29T08:08:13.024Z,5.20
2019-01-29T08:10:40.323Z,5.40
2019-01-29T08:13:07.745Z,5.50
2019-01-29T08:15:37.356Z,5.60
2019-01-29T08:18:05.738Z,5.70
2019-01-29T08:20:33.139Z,5.60
2019-01-29T08:23:00.424Z,5.60
2019-01-29T08:25:27.690Z,5.60
2019-01-29T08:27:55.003Z,5.60
2019-01-29T08:30:22.298Z,5.60
2019-01-29T08:32:49.611Z,5.60
2019-01-29T08:35:16.968Z,5.60
2019-01-29T08:37:44.349Z,5.60
2019-01-29T08:40:11.798Z,5.60
2019-01-29T08:42:39.255Z,5.60
2019-01-29T08:45:07.654Z,5.50
2019-01-29T08:47:34.997Z,5.50
2019-01-29T08:50:02.298Z,5.60
2019-01-29T08:52:30.157Z,5.50
2019-01-29T08:54:57.971Z,5.50
2019-01-29T08:57:25.660Z,5.50
2019-01-29T08:59:52.971Z,5.30
2019-01-29T09:02:20.367Z,5.40
2019-01-29T09:04:50.173Z,5.60
2019-01-29T09:07:17.461Z,5.60
2019-01-29T09:09:44.817Z,5.40
2019-01-29T09:12:12.215Z,5.50
2019-01-29T09:14:39.516Z,5.70
2019-01-29T09:17:06.836Z,5.90
2019-01-29T09:19:34.479Z,5.90
2019-01-29T09:22:01.671Z,5.80
2019-01-29T09:24:29.008Z,5.80
2019-01-29T09:26:56.338Z,5.90
2019-01-29T09:29:23.636Z,6.10
2019-01-29T09:31:50.954Z,6.20
2019-01-29T09:34:18.293Z,6.20
2019-01-29T09:36:45.698Z,6.30
2019-01-29T09:39:13.334Z,6.10
2019-01-29T09:41:40.833Z,6.30
2019-01-29T09:44:08.248Z,6.00
2019-01-29T09:46:35.573Z,6.00
2019-01-29T09:49:03.218Z,6.20
2019-01-29T09:51:30.677Z,6.00
2019-01-29T09:53:58.226Z,6.40
2019-01-29T09:56:28.117Z,6.20
2019-01-29T09:58:55.523Z,6.50
2019-01-29T10:01:22.919Z,6.60
2019-01-29T10:03:51.342Z,6.70
2019-01-29T10:06:20.904Z,6.60
2019-01-29T10:08:51.407Z,6.80
2019-01-29T10:11:18.816Z,6.80
2019-01-29T10:13:46.322Z,7.00
2019-01-29T10:16:13.660Z,7.10
2019-01-29T10:18:41.280Z,7.00
2019-01-29T10:21:08.592Z,7.00
2019-01-29T10:23:35.919Z,7.10
2019-01-29T10:26:03.334Z,7.00
2019-01-29T10:28:30.674Z,6.90
2019-01-29T10:30:58.103Z,7.00
2019-01-29T10:33:25.528Z,7.10
2019-01-29T10:35:53.125Z,7.00
2019-01-29T10:38:20.528Z,7.00
2019-01-29T10:40:47.863Z,7.10
2019-01-29T10:43:15.163Z,7.30
2019-01-29T10:45:42.496Z,7.10
2019-01-29T10:48:09.883Z,7.00
2019-01-29T10:50:37.231Z,7.20
2019-01-29T10:53:04.756Z,7.20
2019-01-29T10:55:32.162Z,7.20
2019-01-29T10:57:59.566Z,7.30
2019-01-29T11:00:29.873Z,7.50
2019-01-29T11:02:57.183Z,7.50
2019-01-29T11:05:24.582Z,7.40
2019-01-29T11:07:52.004Z,7.50
2019-01-29T11:10:19.618Z,7.40
2019-01-29T11:12:46.902Z,7.40
2019-01-29T11:15:23.116Z,7.50
2019-01-29T11:17:50.415Z,7.80
2019-01-29T11:20:18.121Z,7.80
2019-01-29T11:22:45.526Z,7.60
2019-01-29T11:25:16.198Z,7.60
2019-01-29T11:27:43.855Z,7.60
2019-01-29T11:30:13.149Z,7.70
2019-01-29T11:32:40.465Z,7.70
2019-01-29T11:35:08.033Z,7.80
2019-01-29T11:37:35.433Z,7.70
2019-01-29T11:40:02.975Z,7.50
2019-01-29T11:42:30.361Z,7.60
2019-01-29T11:44:57.706Z,7.50
2019-01-29T11:47:25.108Z,7.60
2019-01-29T11:49:52.785Z,7.50
2019-01-29T11:52:20.193Z,7.60
2019-01-29T11:54:47.607Z,7.80
2019-01-29T11:57:15.038Z,7.70
2019-01-29T11:59:44.593Z,7.70
2019-01-29T12:02:14.652Z,7.80
2019-01-29T12:04:42.364Z,7.90
2019-01-29T12:07:09.737Z,7.70
2019-01-29T12:09:37.172Z,7.70
2019-01-29T12:12:06.391Z,7.80
2019-01-29T12:14:33.882Z,7.80
2019-01-29T12:17:01.326Z,7.80
2019-01-29T12:19:28.714Z,8.00
2019-01-29T12:21:56.342Z,7.90
2019-01-29T12:24:23.631Z,8.00
2019-01-29T12:26:50.976Z,7.90
2019-01-29T12:29:18.280Z,7.90
2019-01-29T12:31:45.667Z,8.00
2019-01-29T12:34:12.981Z,7.90
2019-01-29T12:36:40.511Z,7.90
2019-01-29T12:39:08.184Z,7.90
2019-01-29T12:41:35.521Z,7.70
2019-01-29T12:44:02.854Z,7.90
2019-01-29T12:46:30.239Z,7.60
2019-01-29T12:48:57.687Z,7.90
2019-01-29T12:51:34.130Z,8.30
2019-01-29T12:54:01.494Z,8.50
2019-01-29T12:56:28.886Z,8.50
2019-01-29T12:58:56.283Z,8.60
2019-01-29T13:01:23.644Z,8.80
2019-01-29T13:03:51.023Z,8.80
2019-01-29T13:06:18.376Z,8.90
2019-01-29T13:08:45.804Z,8.90
2019-01-29T13:11:13.174Z,8.90
2019-01-29T13:13:40.518Z,8.90
2019-01-29T13:16:07.959Z,8.80
2019-01-29T13:18:35.267Z,8.90
2019-01-29T13:21:02.613Z,8.90
2019-01-29T13:23:30.005Z,8.90
2019-01-29T13:25:57.423Z,8.90
2019-01-29T13:28:25.873Z,8.90
2019-01-29T13:30:53.200Z,8.90
2019-01-29T13:33:20.767Z,8.80
2019-01-29T13:35:48.222Z,8.70
2019-01-29T13:38:15.665Z,8.70
2019-01-29T13:40:43.051Z,8.70
2019-01-29T13:43:10.499Z,8.60
2019-01-29T13:45:38.300Z,8.50
2019-01-29T13:48:06.149Z,8.40
2019-01-29T13:50:41.212Z,8.30
2019-01-29T13:53:10.706Z,8.30
2019-01-29T13:55:38.126Z,8.30
2019-01-29T13:58:06.756Z,8.20
2019-01-29T14:00:34.622Z,8.20
2019-01-29T14:03:02.149Z,8.20
2019-01-29T14:05:29.737Z,8.30
2019-01-29T14:07:57.261Z,8.30
2019-01-29T14:10:25.269Z,8.30
2019-01-29T14:12:52.770Z,8.30
2019-01-29T14:15:42.250Z,8.30
2019-01-29T14:18:10.445Z,8.30
2019-01-29T14:20:37.783Z,8.30
2019-01-29T14:23:06.524Z,8.10
2019-01-29T14:25:33.871Z,8.20
2019-01-29T14:28:02.231Z,8.20
2019-01-29T14:30:29.692Z,8.20
2019-01-29T14:32:57.091Z,8.20
2019-01-29T14:35:24.499Z,8.20
2019-01-29T14:38:45.918Z,8.30
2019-01-29T14:41:14.714Z,8.20
2019-01-29T14:43:45.547Z,8.20
2019-01-29T14:46:12.993Z,8.20
2019-01-29T14:48:40.423Z,8.20
2019-01-29T14:51:07.769Z,8.10
2019-01-29T14:53:35.107Z,8.20
2019-01-29T14:56:02.623Z,8.20
2019-01-29T14:58:30.447Z,8.10
2019-01-29T15:00:58.188Z,8.10
2019-01-29T15:03:27.113Z,8.10
2019-01-29T15:05:54.513Z,8.10
2019-01-29T15:08:22.119Z,8.00
2019-01-29T15:10:49.473Z,8.10
2019-01-29T15:13:16.923Z,8.10
2019-01-29T15:15:51.203Z,8.10
2019-01-29T15:18:25.339Z,8.00
2019-01-29T15:20:52.684Z,8.00
2019-01-29T15:23:20.117Z,8.00
2019-01-29T15:25:48.704Z,7.90
2019-01-29T15:28:16.060Z,7.90
2019-01-29T15:30:43.436Z,7.90
2019-01-29T15:33:12.246Z,7.90
2019-01-29T15:35:39.657Z,7.80
2019-01-29T15:38:07.296Z,7.80
2019-01-29T15:40:34.726Z,7.70
2019-01-29T15:43:02.181Z,7.80
2019-01-29T15:45:29.633Z,7.60
2019-01-29T15:47:57.086Z,7.60
2019-01-29T15:50:24.601Z,7.50
2019-01-29T15:52:51.981Z,7.40
2019-01-29T15:55:19.547Z,7.30
2019-01-29T15:57:47.538Z,7.30
2019-01-29T16:00:18.227Z,7.20
2019-01-29T16:02:45.536Z,7.20
2019-01-29T16:05:16.968Z,7.10
2019-01-29T16:07:44.346Z,6.90
2019-01-29T16:10:14.063Z,6.90
2019-01-29T16:12:41.484Z,6.80
2019-01-29T16:15:10.717Z,6.70
2019-01-29T16:17:38.177Z,6.60
2019-01-29T16:20:06.490Z,6.50
2019-01-29T16:22:33.932Z,6.50
2019-01-29T16:25:01.381Z,6.40
2019-01-29T16:27:28.805Z,6.40
2019-01-29T16:29:56.555Z,6.40
2019-01-29T16:32:23.878Z,6.30
2019-01-29T16:34:51.430Z,6.20
2019-01-29T16:37:18.810Z,6.20
2019-01-29T16:39:46.292Z,6.20
2019-01-29T16:42:13.682Z,6.10
2019-01-29T16:44:41.126Z,6.10
2019-01-29T16:47:08.488Z,6.10
2019-01-29T16:49:35.967Z,6.00
2019-01-29T16:52:03.822Z,6.00
2019-01-29T16:54:31.716Z,5.90
2019-01-29T16:56:59.172Z,5.90
2019-01-29T16:59:26.534Z,5.90
2019-01-29T17:01:54.344Z,5.90
2019-01-29T17:04:21.800Z,5.80
2019-01-29T17:06:49.272Z,5.80
2019-01-29T17:09:17.682Z,5.80
2019-01-29T17:11:45.182Z,5.70
2019-01-29T17:14:12.646Z,5.70
2019-01-29T17:16:40.043Z,5.60
2019-01-29T17:19:07.466Z,5.60
2019-01-29T17:21:35.231Z,5.60
2019-01-29T17:24:02.610Z,5.50
2019-01-29T17:26:31.137Z,5.60
2019-01-29T17:28:58.851Z,5.50
2019-01-29T17:31:26.318Z,5.50
2019-01-29T17:33:54.051Z,5.50
2019-01-29T17:36:21.502Z,5.40
2019-01-29T17:38:49.137Z,5.40
2019-01-29T17:41:16.585Z,5.30
2019-01-29T17:43:44.075Z,5.30
2019-01-29T17:46:11.519Z,5.30
2019-01-29T17:48:39.038Z,5.20
2019-01-29T17:51:06.967Z,5.20
2019-01-29T17:53:34.356Z,5.20
2019-01-29T17:56:01.989Z,5.10
2019-01-29T17:58:29.458Z,5.10
2019-01-29T18:00:59.923Z,5.10
2019-01-29T18:03:27.395Z,5.00
2019-01-29T18:05:54.840Z,5.00
2019-01-29T18:08:22.784Z,5.00
2019-01-29T18:10:50.251Z,5.00
2019-01-29T18:13:17.779Z,5.00
2019-01-29T18:15:45.341Z,5.00
2019-01-29T18:18:12.833Z,5.00
2019-01-29T18:20:40.307Z,5.00
2019-01-29T18:23:07.833Z,4.90
2019-01-29T18:25:35.343Z,4.90
2019-01-29T18:28:02.919Z,4.80
2019-01-29T18:30:31.528Z,4.90
2019-01-29T18:32:59.052Z,4.80
2019-01-29T18:35:26.568Z,4.80
2019-01-29T18:37:54.241Z,4.70
2019-01-29T18:40:24.623Z,4.70
2019-01-29T18:42:52.316Z,4.70
2019-01-29T18:45:19.888Z,4.70
2019-01-29T18:47:47.673Z,4.60
2019-01-29T18:50:15.745Z,4.60
2019-01-29T18:52:43.227Z,4.60
2019-01-29T18:55:11.042Z,4.70
2019-01-29T18:57:38.728Z,4.60
2019-01-29T19:00:10.734Z,4.60
2019-01-29T19:02:38.157Z,4.60
2019-01-29T19:05:06.983Z,4.50
2019-01-29T19:07:34.543Z,4.50
2019-01-29T19:10:02.127Z,4.50
2019-01-29T19:12:29.697Z,4.50
2019-01-29T19:14:57.221Z,4.50
2019-01-29T19:17:24.780Z,4.40
2019-01-29T19:19:52.873Z,4.40
2019-01-29T19:22:22.654Z,4.40
2019-01-29T19:24:49.777Z,4.40
2019-01-29T19:27:17.316Z,4.40
2019-01-29T19:29:45.460Z,4.40
2019-01-29T19:32:12.995Z,4.40
2019-01-29T19:34:41.013Z,4.30
2019-01-29T19:37:08.490Z,4.30
2019-01-29T19:39:36.002Z,4.30
2019-01-29T19:42:03.667Z,4.30
2019-01-29T19:44:31.321Z,4.20
2019-01-29T19:46:58.906Z,4.20
2019-01-29T19:49:26.528Z,4.20
2019-01-29T19:51:54.572Z,4.20
2019-01-29T19:54:22.357Z,4.20
2019-01-29T19:56:50.306Z,4.10
2019-01-29T19:59:18.432Z,4.10
2019-01-29T20:01:46.015Z,4.10
2019-01-29T20:04:13.684Z,4.10
2019-01-29T20:06:41.225Z,4.10
2019-01-29T20:09:11.924Z,4.10
2019-01-29T20:11:39.528Z,4.00
2019-01-29T20:14:07.531Z,4.10
2019-01-29T20:16:35.134Z,4.00
2019-01-29T20:19:02.920Z,4.00
2019-01-29T20:21:30.629Z,4.10
2019-01-29T20:23:58.425Z,4.00
2019-01-29T20:26:26.188Z,4.00
2019-01-29T20:28:53.773Z,4.00
2019-01-29T20:31:21.351Z,4.00
2019-01-29T20:33:49.113Z,4.00
2019-01-29T20:36:16.745Z,4.00
2019-01-29T20:38:44.700Z,4.00
2019-01-29T20:41:12.325Z,4.00
2019-01-29T20:43:39.994Z,4.00
2019-01-29T20:46:07.668Z,3.90
2019-01-29T20:48:35.290Z,4.00
2019-01-29T20:51:02.939Z,3.90
2019-01-29T20:53:30.492Z,3.90
2019-01-29T20:55:58.076Z,4.00
2019-01-29T20:58:25.549Z,3.90
2019-01-29T21:00:53.026Z,4.00
2019-01-29T21:03:20.773Z,4.00
2019-01-29T21:05:48.277Z,4.00
2019-01-29T21:08:16.112Z,4.00
2019-01-29T21:10:43.562Z,4.00
2019-01-29T21:13:11.105Z,3.90
2019-01-29T21:15:38.878Z,3.90
2019-01-29T21:18:06.545Z,3.90
2019-01-29T21:20:35.822Z,3.90
2019-01-29T21:23:03.585Z,3.90
2019-01-29T21:25:30.946Z,3.90
2019-01-29T21:27:58.405Z,3.80
2019-01-29T21:30:28.205Z,3.80
2019-01-29T21:32:55.700Z,3.80
2019-01-29T21:35:23.145Z,3.80
2019-01-29T21:37:50.927Z,3.80
2019-01-29T21:40:18.847Z,3.70
2019-01-29T21:42:46.426Z,3.70
2019-01-29T21:45:14.799Z,3.80
2019-01-29T21:47:42.466Z,3.70
2019-01-29T21:50:13.395Z,3.70
2019-01-29T21:52:40.866Z,3.80
2019-01-29T21:55:08.471Z,3.70
2019-01-29T21:57:35.934Z,3.70
2019-01-29T22:00:06.791Z,3.70
2019-01-29T22:02:34.086Z,3.80
2019-01-29T22:05:01.487Z,3.80
2019-01-29T22:07:28.896Z,3.70
2019-01-29T22:09:56.318Z,3.70
2019-01-29T22:12:23.752Z,3.70
2019-01-29T22:14:51.164Z,3.80
2019-01-29T22:17:18.534Z,3.80
2019-01-29T22:19:45.971Z,3.80
2019-01-29T22:22:13.335Z,3.70
2019-01-29T22:24:40.741Z,3.80
2019-01-29T22:27:08.095Z,3.70
2019-01-29T22:29:35.464Z,3.70
2019-01-29T22:32:02.846Z,3.70
2019-01-29T22:34:30.186Z,3.70
2019-01-29T22:36:57.545Z,3.60
2019-01-29T22:39:24.966Z,3.60
2019-01-29T22:41:52.759Z,3.60
2019-01-29T22:44:20.087Z,3.60
2019-01-29T22:46:47.543Z,3.60
2019-01-29T22:49:14.967Z,3.70
2019-01-29T22:51:42.323Z,3.60
2019-01-29T22:54:09.660Z,3.70
2019-01-29T22:56:37.143Z,3.70
2019-01-29T22:59:05.275Z,3.60
2019-01-29T23:01:38.178Z,3.60
2019-01-29T23:04:23.212Z,3.60
2019-01-29T23:07:11.649Z,3.60
2019-01-29T23:09:39.076Z,3.60
2019-01-29T23:12:06.476Z,3.60
2019-01-29T23:14:34.112Z,3.60
2019-01-29T23:17:01.545Z,3.60
2019-01-29T23:19:28.867Z,3.70
2019-01-29T23:21:56.376Z,3.60
2019-01-29T23:24:23.736Z,3.60
2019-01-29T23:26:51.106Z,3.60
2019-01-29T23:29:18.462Z,3.60
2019-01-29T23:31:45.763Z,3.50
2019-01-29T23:34:13.080Z,3.50
2019-01-29T23:36:40.395Z,3.50
2019-01-29T23:39:08.598Z,3.50
2019-01-29T23:41:35.935Z,3.50
2019-01-29T23:44:03.492Z,3.50
2019-01-29T23:46:30.837Z,3.50
2019-01-29T23:48:58.271Z,3.50
2019-01-29T23:51:25.672Z,3.50
2019-01-29T23:53:53.019Z,3.50
2019-01-29T23:56:20.330Z,3.50
2019-01-29T23:58:47.684Z,3.50
